Time;durP1;ratioP1;P1;durP2;ratioP2;P2;SDS_P1;SDS_P2;PMS_P1;PMS_P2;Temp;Humidity;BMP_temperature;BMP_pressure;BME280_temperature;BME280_humidity;BME280_pressure;Samples;Min_cycle;Max_cycle;Signal;HPM_P1;HPM_P2
2022/08/07 00:02:12;;;;;;;14.10;8.98;;;;;;;;;;1643269;86;21179;-66
2022/08/07 00:04:38;;;;;;;11.57;8.98;;;;;;;;;;1673672;85;21148;-66
2022/08/07 00:07:05;;;;;;;12.53;9.53;;;;;;;;;;1651903;85;21608;-66
2022/08/07 00:09:31;;;;;;;13.93;10.03;;;;;;;;;;1679043;84;21549;-66
2022/08/07 00:11:57;;;;;;;14.93;11.00;;;;;;;;;;1682878;85;21042;-66
2022/08/07 00:14:25;;;;;;;10.63;8.00;;;;;;;;;;1695723;84;21119;-66
2022/08/07 00:16:51;;;;;;;13.88;8.30;;;;;;;;;;1699886;84;21052;-66
2022/08/07 00:19:18;;;;;;;13.00;10.23;;;;;;;;;;1686963;84;21534;-66
2022/08/07 00:21:44;;;;;;;13.10;8.78;;;;;;;;;;1641637;86;21063;-66
2022/08/07 00:24:10;;;;;;;12.98;9.43;;;;;;;;;;1653293;86;21100;-66
2022/08/07 00:26:37;;;;;;;10.90;9.48;;;;;;;;;;1667214;85;21110;-66
2022/08/07 00:29:04;;;;;;;14.20;10.72;;;;;;;;;;1659525;85;21081;-66
2022/08/07 00:31:30;;;;;;;11.70;7.67;;;;;;;;;;1658816;85;21073;-66
2022/08/07 00:33:56;;;;;;;12.90;8.25;;;;;;;;;;1655189;85;21061;-66
2022/08/07 00:36:22;;;;;;;12.60;9.90;;;;;;;;;;1664866;85;21089;-66
2022/08/07 00:38:48;;;;;;;13.25;8.38;;;;;;;;;;1658336;85;21134;-66
2022/08/07 00:41:15;;;;;;;11.28;9.38;;;;;;;;;;1657109;85;21080;-66
2022/08/07 00:43:42;;;;;;;12.40;8.85;;;;;;;;;;1656872;86;21077;-66
2022/08/07 00:46:08;;;;;;;10.93;8.03;;;;;;;;;;1666937;85;21081;-66
2022/08/07 00:48:34;;;;;;;12.58;10.10;;;;;;;;;;1660424;85;21162;-66
2022/08/07 00:51:01;;;;;;;14.75;10.08;;;;;;;;;;1661183;85;21067;-66
2022/08/07 00:53:28;;;;;;;11.83;9.05;;;;;;;;;;1659879;85;21530;-66
2022/08/07 00:55:54;;;;;;;12.07;8.73;;;;;;;;;;1688843;83;21582;-66
2022/08/07 00:58:21;;;;;;;13.03;10.00;;;;;;;;;;1734685;81;21081;-65
2022/08/07 01:03:29;;;;;;;12.98;8.43;;;;;;;;;;1738642;80;21206;-65
2022/08/07 01:05:55;;;;;;;11.90;8.83;;;;;;;;;;1671304;84;21027;-65
2022/08/07 01:08:21;;;;;;;12.20;9.98;;;;;;;;;;1675627;84;21018;-65
2022/08/07 01:10:47;;;;;;;10.60;8.30;;;;;;;;;;1690629;84;21045;-65
2022/08/07 01:13:13;;;;;;;11.35;8.28;;;;;;;;;;1685610;84;21654;-64
2022/08/07 01:15:39;;;;;;;12.20;9.80;;;;;;;;;;1672354;84;21610;-65
2022/08/07 01:18:06;;;;;;;11.55;8.20;;;;;;;;;;1701942;84;21077;-65
2022/08/07 01:20:34;;;;;;;11.33;8.73;;;;;;;;;;1671620;85;21117;-65
2022/08/07 01:23:00;;;;;;;11.68;9.33;;;;;;;;;;1672300;85;21066;-65
2022/08/07 01:25:27;;;;;;;13.22;9.95;;;;;;;;;;1659598;85;21067;-65
2022/08/07 01:27:54;;;;;;;11.90;7.85;;;;;;;;;;1679553;84;21131;-65
2022/08/07 01:30:21;;;;;;;13.43;8.83;;;;;;;;;;1677478;84;21552;-66
2022/08/07 01:32:48;;;;;;;12.20;8.93;;;;;;;;;;1681848;84;21076;-65
2022/08/07 01:35:15;;;;;;;10.65;9.10;;;;;;;;;;1664294;86;21059;-65
2022/08/07 01:37:41;;;;;;;11.48;9.43;;;;;;;;;;1668204;85;22189;-65
2022/08/07 01:40:09;;;;;;;10.30;7.55;;;;;;;;;;1667748;84;21087;-65
2022/08/07 01:42:36;;;;;;;12.47;8.45;;;;;;;;;;1671918;85;21044;-65
2022/08/07 01:45:04;;;;;;;12.15;9.45;;;;;;;;;;1679626;84;21081;-65
2022/08/07 01:47:32;;;;;;;11.85;10.65;;;;;;;;;;1669699;84;21077;-66
2022/08/07 01:49:59;;;;;;;13.18;9.03;;;;;;;;;;1689563;84;21115;-65
2022/08/07 01:52:26;;;;;;;11.40;8.35;;;;;;;;;;1680413;84;21555;-64
2022/08/07 01:54:52;;;;;;;12.98;9.35;;;;;;;;;;1662028;85;21503;-65
2022/08/07 01:57:26;;;;;;;12.60;10.93;;;;;;;;;;1684669;85;21626;-64
2022/08/07 01:59:55;;;;;;;12.70;9.88;;;;;;;;;;1695862;84;21083;-65
2022/08/07 02:02:24;;;;;;;13.43;10.43;;;;;;;;;;1684224;84;21192;-64
2022/08/07 02:04:58;;;;;;;13.25;10.82;;;;;;;;;;1698491;83;21155;-64
2022/08/07 02:07:28;;;;;;;14.13;9.30;;;;;;;;;;1690900;83;21101;-64
2022/08/07 02:09:54;;;;;;;14.58;9.65;;;;;;;;;;1672807;84;21621;-64
2022/08/07 02:12:23;;;;;;;13.32;9.75;;;;;;;;;;1673344;84;21085;-65
2022/08/07 02:14:51;;;;;;;13.43;10.23;;;;;;;;;;1690138;84;21076;-65
2022/08/07 02:17:20;;;;;;;12.00;10.75;;;;;;;;;;1687439;84;21133;-65
2022/08/07 02:19:47;;;;;;;11.48;9.00;;;;;;;;;;1675152;84;21082;-65
2022/08/07 02:22:14;;;;;;;11.63;9.38;;;;;;;;;;1687348;84;21516;-65
2022/08/07 02:24:41;;;;;;;15.80;11.12;;;;;;;;;;1694255;84;21126;-65
2022/08/07 02:27:07;;;;;;;14.13;10.50;;;;;;;;;;1591239;89;21153;-65
2022/08/07 02:29:34;;;;;;;12.78;10.88;;;;;;;;;;1647240;85;21162;-65
2022/08/07 02:32:02;;;;;;;12.53;9.70;;;;;;;;;;1631279;87;21065;-65
2022/08/07 02:34:28;;;;;;;12.37;9.45;;;;;;;;;;1637107;87;21063;-65
2022/08/07 02:36:55;;;;;;;12.35;10.00;;;;;;;;;;1634085;87;21128;-65
2022/08/07 02:39:21;;;;;;;14.03;11.53;;;;;;;;;;1629912;87;21095;-65
2022/08/07 02:41:48;;;;;;;12.90;9.70;;;;;;;;;;1622147;87;21524;-65
2022/08/07 02:44:14;;;;;;;13.98;9.73;;;;;;;;;;1607501;88;21109;-65
2022/08/07 02:46:40;;;;;;;13.68;10.85;;;;;;;;;;1622627;87;21075;-65
2022/08/07 02:49:07;;;;;;;13.60;11.30;;;;;;;;;;1618705;87;21092;-65
2022/08/07 02:51:34;;;;;;;12.43;8.80;;;;;;;;;;1618329;88;21131;-65
2022/08/07 02:54:01;;;;;;;14.23;10.30;;;;;;;;;;1620830;87;21623;-66
2022/08/07 02:56:29;;;;;;;13.00;10.48;;;;;;;;;;1619980;88;21076;-65
2022/08/07 02:58:55;;;;;;;11.90;10.40;;;;;;;;;;1621515;87;21051;-65
2022/08/07 03:01:22;;;;;;;12.30;9.33;;;;;;;;;;1622375;86;21497;-65
2022/08/07 03:03:49;;;;;;;12.60;9.23;;;;;;;;;;1608017;89;21432;-65
2022/08/07 03:06:17;;;;;;;13.90;10.55;;;;;;;;;;1589124;89;21073;-65
2022/08/07 03:08:43;;;;;;;14.07;10.55;;;;;;;;;;1628623;85;21068;-66
2022/08/07 03:11:10;;;;;;;13.18;10.40;;;;;;;;;;1644149;86;21133;-66
2022/08/07 03:13:38;;;;;;;12.03;10.40;;;;;;;;;;1615979;86;21831;-66
2022/08/07 03:16:04;;;;;;;11.88;10.48;;;;;;;;;;1632798;86;21034;-66
2022/08/07 03:18:31;;;;;;;13.60;12.15;;;;;;;;;;1630974;86;21109;-66
2022/08/07 03:20:57;;;;;;;13.93;10.25;;;;;;;;;;1645270;86;21133;-66
2022/08/07 03:23:25;;;;;;;13.72;10.20;;;;;;;;;;1631667;86;21107;-66
2022/08/07 03:25:52;;;;;;;13.75;10.05;;;;;;;;;;1651094;86;21078;-66
2022/08/07 03:28:18;;;;;;;15.83;11.00;;;;;;;;;;1629000;86;21062;-66
2022/08/07 03:30:45;;;;;;;16.73;12.00;;;;;;;;;;1643707;86;21646;-66
2022/08/07 03:33:11;;;;;;;15.60;12.68;;;;;;;;;;1647699;86;22130;-66
2022/08/07 03:35:38;;;;;;;16.52;14.05;;;;;;;;;;1642512;86;21137;-66
2022/08/07 03:38:05;;;;;;;14.83;11.10;;;;;;;;;;1623157;86;21108;-66
2022/08/07 03:40:32;;;;;;;15.95;11.45;;;;;;;;;;1622639;86;21556;-66
2022/08/07 03:42:59;;;;;;;15.80;11.00;;;;;;;;;;1629804;86;21011;-67
2022/08/07 03:45:26;;;;;;;15.05;12.60;;;;;;;;;;1641129;86;21061;-66
2022/08/07 03:47:52;;;;;;;14.40;12.70;;;;;;;;;;1633452;86;21067;-65
2022/08/07 03:50:20;;;;;;;16.30;12.03;;;;;;;;;;1628015;86;21129;-64
2022/08/07 03:52:47;;;;;;;14.95;11.50;;;;;;;;;;1625157;86;21046;-66
2022/08/07 03:55:13;;;;;;;15.03;12.45;;;;;;;;;;1641104;86;21562;-66
2022/08/07 03:57:41;;;;;;;13.80;10.60;;;;;;;;;;1644390;86;21074;-66
2022/08/07 04:00:08;;;;;;;14.93;12.10;;;;;;;;;;1630036;86;21539;-67
2022/08/07 04:02:36;;;;;;;16.73;11.80;;;;;;;;;;1631216;86;21038;-66
2022/08/07 04:05:04;;;;;;;16.25;13.70;;;;;;;;;;1643794;86;21127;-67
2022/08/07 04:07:31;;;;;;;16.37;12.13;;;;;;;;;;1625006;87;21095;-67
2022/08/07 04:09:57;;;;;;;14.20;11.90;;;;;;;;;;1622072;87;21040;-65
2022/08/07 04:12:23;;;;;;;14.70;12.82;;;;;;;;;;1620865;87;21137;-65
2022/08/07 04:14:50;;;;;;;15.40;13.72;;;;;;;;;;1620087;87;21566;-64
2022/08/07 04:17:17;;;;;;;16.50;12.65;;;;;;;;;;1621571;87;21067;-65
2022/08/07 04:19:44;;;;;;;14.68;11.65;;;;;;;;;;1632290;88;21085;-65
2022/08/07 04:22:10;;;;;;;14.75;12.68;;;;;;;;;;1623596;87;21154;-64
2022/08/07 04:24:38;;;;;;;14.18;11.15;;;;;;;;;;1619339;87;21098;-65
2022/08/07 04:27:05;;;;;;;14.47;11.88;;;;;;;;;;1637493;88;21069;-65
2022/08/07 04:29:33;;;;;;;13.28;11.90;;;;;;;;;;1645577;85;21059;-65
2022/08/07 04:31:59;;;;;;;12.13;9.35;;;;;;;;;;1640685;87;21083;-65
2022/08/07 04:34:26;;;;;;;14.18;11.57;;;;;;;;;;1645567;87;21083;-65
2022/08/07 04:36:53;;;;;;;14.47;10.93;;;;;;;;;;1622561;87;21071;-66
2022/08/07 04:39:19;;;;;;;13.55;9.98;;;;;;;;;;1636532;87;21095;-64
2022/08/07 04:41:46;;;;;;;11.25;10.15;;;;;;;;;;1618609;87;21095;-64
2022/08/07 04:45:10;;;;;;;12.60;11.30;;;;;;;;;;1819239;78;22968;-64
2022/08/07 04:47:39;;;;;;;11.60;10.50;;;;;;;;;;1760165;80;21023;-64
2022/08/07 04:50:13;;;;;;;11.78;9.85;;;;;;;;;;1789125;79;21060;-64
2022/08/07 04:52:42;;;;;;;10.82;9.73;;;;;;;;;;1784104;79;21018;-65
2022/08/07 04:55:19;;;;;;;13.22;10.68;;;;;;;;;;1792032;79;21019;-64
2022/08/07 04:57:54;;;;;;;12.20;9.38;;;;;;;;;;1768421;79;21057;-65
2022/08/07 05:00:22;;;;;;;11.78;10.53;;;;;;;;;;1779772;79;21056;-64
2022/08/07 05:02:53;;;;;;;14.25;11.45;;;;;;;;;;1787538;79;21568;-65
2022/08/07 05:05:25;;;;;;;12.13;10.38;;;;;;;;;;1777055;79;20988;-65
2022/08/07 05:07:53;;;;;;;12.45;8.75;;;;;;;;;;1777316;80;21122;-65
2022/08/07 05:10:21;;;;;;;13.03;9.33;;;;;;;;;;1752663;80;21054;-65
2022/08/07 05:12:49;;;;;;;13.40;9.00;;;;;;;;;;1715345;81;21092;-65
2022/08/07 05:15:18;;;;;;;8.93;8.03;;;;;;;;;;1729828;82;21065;-65
2022/08/07 05:17:47;;;;;;;10.25;9.15;;;;;;;;;;1729806;81;21055;-65
2022/08/07 05:20:20;;;;;;;10.35;7.67;;;;;;;;;;1742754;81;21032;-65
2022/08/07 05:22:46;;;;;;;11.90;7.80;;;;;;;;;;1717140;82;21073;-65
2022/08/07 05:25:14;;;;;;;9.25;8.25;;;;;;;;;;1713998;82;21045;-65
2022/08/07 05:27:40;;;;;;;11.65;7.12;;;;;;;;;;1754995;81;21035;-65
2022/08/07 05:30:07;;;;;;;7.53;6.75;;;;;;;;;;1749879;81;21105;-63
2022/08/07 05:32:34;;;;;;;8.63;7.10;;;;;;;;;;1760107;81;21065;-63
2022/08/07 05:35:01;;;;;;;7.28;6.47;;;;;;;;;;1759772;81;21566;-63
2022/08/07 05:37:27;;;;;;;8.28;7.47;;;;;;;;;;1749992;80;21101;-64
2022/08/07 05:39:55;;;;;;;9.10;6.67;;;;;;;;;;1733345;81;20989;-65
2022/08/07 05:42:21;;;;;;;7.95;6.90;;;;;;;;;;1725822;81;21050;-64
2022/08/07 05:44:48;;;;;;;8.28;6.70;;;;;;;;;;1744448;81;21051;-65
2022/08/07 05:47:18;;;;;;;8.53;7.62;;;;;;;;;;1749318;80;21536;-65
2022/08/07 05:49:43;;;;;;;8.88;7.10;;;;;;;;;;1748846;82;21012;-65
2022/08/07 05:52:09;;;;;;;7.60;6.80;;;;;;;;;;1742392;82;21574;-66
2022/08/07 05:54:35;;;;;;;8.90;7.53;;;;;;;;;;1720312;82;20976;-65
2022/08/07 05:57:02;;;;;;;9.50;8.13;;;;;;;;;;1753926;80;21066;-65
2022/08/07 05:59:29;;;;;;;8.18;6.90;;;;;;;;;;1727462;82;21052;-65
2022/08/07 06:01:57;;;;;;;8.95;7.03;;;;;;;;;;1737541;82;21017;-64
2022/08/07 06:04:24;;;;;;;8.75;7.25;;;;;;;;;;1744190;82;21062;-64
2022/08/07 06:06:50;;;;;;;10.18;8.45;;;;;;;;;;1754480;82;21031;-65
2022/08/07 06:09:18;;;;;;;8.13;7.33;;;;;;;;;;1749378;82;21035;-65
2022/08/07 06:11:46;;;;;;;8.63;7.72;;;;;;;;;;1744702;82;21023;-66
2022/08/07 06:14:14;;;;;;;10.53;7.35;;;;;;;;;;1754571;82;21066;-66
2022/08/07 06:16:43;;;;;;;10.82;8.20;;;;;;;;;;1739575;82;21070;-66
2022/08/07 06:19:09;;;;;;;7.83;7.03;;;;;;;;;;1750165;82;20945;-65
2022/08/07 06:21:35;;;;;;;7.03;6.33;;;;;;;;;;1749523;82;21020;-65
2022/08/07 06:24:02;;;;;;;8.00;7.20;;;;;;;;;;1753150;82;21083;-66
2022/08/07 06:26:29;;;;;;;8.48;7.28;;;;;;;;;;1754706;82;20996;-66
2022/08/07 06:28:58;;;;;;;6.97;6.28;;;;;;;;;;1753793;82;21090;-67
2022/08/07 06:31:25;;;;;;;8.45;7.58;;;;;;;;;;1753240;82;21037;-67
2022/08/07 06:33:53;;;;;;;7.90;7.10;;;;;;;;;;1740339;82;21004;-66
2022/08/07 06:36:20;;;;;;;12.68;7.17;;;;;;;;;;1737235;82;21034;-67
2022/08/07 06:38:48;;;;;;;8.85;8.05;;;;;;;;;;1743936;82;21577;-67
2022/08/07 06:41:22;;;;;;;8.25;7.45;;;;;;;;;;1754544;82;21044;-66
2022/08/07 06:43:48;;;;;;;7.92;7.12;;;;;;;;;;1751975;82;21060;-66
2022/08/07 06:46:16;;;;;;;7.85;7.05;;;;;;;;;;1740652;82;21634;-66
2022/08/07 06:48:44;;;;;;;8.53;7.08;;;;;;;;;;1744871;81;21011;-66
2022/08/07 06:51:14;;;;;;;8.33;7.53;;;;;;;;;;1769149;79;21048;-65
2022/08/07 06:53:41;;;;;;;7.90;7.10;;;;;;;;;;1746010;81;21029;-65
2022/08/07 06:56:08;;;;;;;8.80;7.97;;;;;;;;;;1769647;79;21040;-66
2022/08/07 06:58:35;;;;;;;9.80;7.87;;;;;;;;;;1759817;79;21586;-66
2022/08/07 07:01:05;;;;;;;8.20;7.50;;;;;;;;;;1774253;79;21053;-66
2022/08/07 07:03:32;;;;;;;9.48;8.50;;;;;;;;;;1774643;81;21018;-66
2022/08/07 07:05:58;;;;;;;9.05;8.10;;;;;;;;;;1770400;79;20967;-66
2022/08/07 07:08:25;;;;;;;7.35;6.65;;;;;;;;;;1774682;79;21538;-66
2022/08/07 07:10:52;;;;;;;8.50;7.70;;;;;;;;;;1766385;79;21421;-66
2022/08/07 07:13:20;;;;;;;9.85;7.92;;;;;;;;;;1761637;79;21264;-66
2022/08/07 07:15:49;;;;;;;9.55;8.65;;;;;;;;;;1768218;79;21033;-66
2022/08/07 07:18:20;;;;;;;9.10;7.95;;;;;;;;;;1729495;81;21062;-65
2022/08/07 07:20:48;;;;;;;10.45;7.75;;;;;;;;;;1694132;83;22327;-66
2022/08/07 07:23:14;;;;;;;8.63;7.83;;;;;;;;;;1751258;81;21089;-66
2022/08/07 07:25:40;;;;;;;7.05;6.35;;;;;;;;;;1748924;81;21563;-66
2022/08/07 07:28:11;;;;;;;8.60;7.70;;;;;;;;;;1770294;81;21107;-66
2022/08/07 07:30:37;;;;;;;8.28;7.47;;;;;;;;;;1770448;79;21040;-66
2022/08/07 07:33:03;;;;;;;7.92;7.12;;;;;;;;;;1772857;79;21528;-66
2022/08/07 07:35:30;;;;;;;8.33;7.62;;;;;;;;;;1777939;81;21065;-66
2022/08/07 07:37:59;;;;;;;8.00;7.20;;;;;;;;;;1778131;81;21068;-66
2022/08/07 07:40:25;;;;;;;7.97;7.17;;;;;;;;;;1778339;81;21067;-66
2022/08/07 07:42:52;;;;;;;8.03;7.22;;;;;;;;;;1778601;81;21061;-66
2022/08/07 07:45:19;;;;;;;8.03;7.22;;;;;;;;;;1770586;80;21011;-66
2022/08/07 07:47:46;;;;;;;8.63;6.85;;;;;;;;;;1770521;80;21587;-66
2022/08/07 07:50:13;;;;;;;8.63;7.78;;;;;;;;;;1762051;79;21091;-66
2022/08/07 07:52:40;;;;;;;7.92;7.12;;;;;;;;;;1769026;79;20970;-66
2022/08/07 07:55:07;;;;;;;16.77;14.85;;;;;;;;;;1780341;79;21512;-67
2022/08/07 07:57:35;;;;;;;42.38;38.17;;;;;;;;;;1783959;80;20993;-66
2022/08/07 08:00:01;;;;;;;18.62;16.73;;;;;;;;;;1743174;80;20995;-65
2022/08/07 08:02:27;;;;;;;9.48;8.58;;;;;;;;;;1774402;79;21012;-63
2022/08/07 08:04:53;;;;;;;9.28;6.50;;;;;;;;;;1784774;80;21504;-65
2022/08/07 08:07:19;;;;;;;7.97;7.10;;;;;;;;;;1779860;79;21073;-65
2022/08/07 08:09:49;;;;;;;8.18;6.65;;;;;;;;;;1776722;79;21017;-65
2022/08/07 08:12:13;;;;;;;7.60;6.58;;;;;;;;;;1779212;80;21061;-64
2022/08/07 08:14:40;;;;;;;7.10;6.33;;;;;;;;;;1720235;82;21037;-65
2022/08/07 08:17:08;;;;;;;7.40;6.37;;;;;;;;;;1775285;79;22193;-65
2022/08/07 08:19:34;;;;;;;8.58;7.03;;;;;;;;;;1782596;80;21076;-64
2022/08/07 08:27:33;;;;;;;7.83;7.03;;;;;;;;;;1777915;80;21025;-64
2022/08/07 08:30:05;;;;;;;8.18;6.70;;;;;;;;;;1774052;79;21095;-64
2022/08/07 08:32:31;;;;;;;6.85;6.08;;;;;;;;;;1781239;79;21586;-64
2022/08/07 08:34:58;;;;;;;6.95;6.30;;;;;;;;;;1781258;79;21056;-64
2022/08/07 08:37:24;;;;;;;7.47;6.78;;;;;;;;;;1769335;80;21559;-63
2022/08/07 08:39:51;;;;;;;6.92;5.95;;;;;;;;;;1797244;79;20997;-64
2022/08/07 08:42:38;;;;;;;8.33;6.83;;;;;;;;;;1786576;80;20993;-63
2022/08/07 08:45:15;;;;;;;7.40;6.05;;;;;;;;;;1780363;79;20994;-63
2022/08/07 08:47:49;;;;;;;6.72;5.95;;;;;;;;;;1761140;81;21527;-63
2022/08/07 08:50:21;;;;;;;8.18;6.58;;;;;;;;;;1767411;79;21029;-64
2022/08/07 08:52:52;;;;;;;7.47;5.62;;;;;;;;;;1757911;81;21564;-63
2022/08/07 08:55:19;;;;;;;6.65;5.87;;;;;;;;;;1772080;79;21041;-64
2022/08/07 08:57:47;;;;;;;6.03;5.20;;;;;;;;;;1755077;81;21021;-64
2022/08/07 09:00:14;;;;;;;5.97;5.30;;;;;;;;;;1775227;79;21017;-63
2022/08/07 09:02:42;;;;;;;6.33;5.72;;;;;;;;;;1807917;79;21126;-63
2022/08/07 09:05:27;;;;;;;7.55;6.12;;;;;;;;;;1774893;79;21041;-64
2022/08/07 09:08:04;;;;;;;6.65;5.58;;;;;;;;;;1778427;81;21671;-63
2022/08/07 09:10:38;;;;;;;6.58;5.20;;;;;;;;;;1778771;79;21025;-64
2022/08/07 09:13:09;;;;;;;6.42;5.05;;;;;;;;;;1776964;80;21048;-64
2022/08/07 09:15:44;;;;;;;6.12;5.08;;;;;;;;;;1726164;81;21061;-63
2022/08/07 09:18:29;;;;;;;8.75;5.80;;;;;;;;;;1703434;82;21119;-63
2022/08/07 09:21:10;;;;;;;6.55;5.58;;;;;;;;;;1786885;79;21009;-64
2022/08/07 09:23:44;;;;;;;6.80;6.12;;;;;;;;;;1782576;79;21066;-64
2022/08/07 09:26:15;;;;;;;6.62;5.85;;;;;;;;;;1775012;79;21032;-64
2022/08/07 09:28:44;;;;;;;6.05;5.45;;;;;;;;;;1739877;81;21051;-64
2022/08/07 09:31:17;;;;;;;6.40;5.70;;;;;;;;;;1706404;82;21069;-64
2022/08/07 09:33:52;;;;;;;6.17;5.58;;;;;;;;;;1775022;79;21095;-64
2022/08/07 09:36:23;;;;;;;6.15;5.50;;;;;;;;;;1772608;79;21072;-64
2022/08/07 09:39:03;;;;;;;5.85;5.00;;;;;;;;;;1748752;80;21029;-64
2022/08/07 09:41:31;;;;;;;6.40;4.67;;;;;;;;;;1754827;79;20999;-65
2022/08/07 09:43:59;;;;;;;6.35;4.90;;;;;;;;;;1775776;79;21033;-64
2022/08/07 09:46:28;;;;;;;6.95;4.33;;;;;;;;;;1782089;79;21069;-65
2022/08/07 09:48:56;;;;;;;5.55;4.58;;;;;;;;;;1785776;79;21014;-64
2022/08/07 09:51:27;;;;;;;7.58;5.03;;;;;;;;;;1786008;79;21525;-64
2022/08/07 09:53:54;;;;;;;7.45;4.20;;;;;;;;;;1756023;82;21585;-64
2022/08/07 09:56:39;;;;;;;6.53;5.17;;;;;;;;;;1778761;79;21021;-65
2022/08/07 09:59:25;;;;;;;6.92;5.17;;;;;;;;;;1785500;80;21045;-64
2022/08/07 10:01:56;;;;;;;7.60;4.53;;;;;;;;;;1758993;79;22240;-63
2022/08/07 10:04:43;;;;;;;6.17;4.58;;;;;;;;;;1805616;79;21532;-64
2022/08/07 10:07:22;;;;;;;6.40;4.75;;;;;;;;;;1813065;79;21076;-64
2022/08/07 10:09:53;;;;;;;11.88;4.62;;;;;;;;;;1785389;79;21045;-66
2022/08/07 10:12:37;;;;;;;5.10;3.95;;;;;;;;;;1786088;79;20991;-66
2022/08/07 10:15:02;;;;;;;;;;;;;;;;;;1780448;79;21122;-65
2022/08/07 10:17:34;;;;;;;6.58;4.42;;;;;;;;;;1771688;79;20115;-66
2022/08/07 10:20:20;;;;;;;7.70;5.12;;;;;;;;;;1782163;79;21100;-67
2022/08/07 10:23:05;;;;;;;5.50;4.45;;;;;;;;;;1770864;80;21055;-67
2022/08/07 10:25:45;;;;;;;7.47;5.25;;;;;;;;;;1779934;79;20997;-67
2022/08/07 10:28:22;;;;;;;7.30;5.00;;;;;;;;;;1769526;79;21022;-67
2022/08/07 10:31:07;;;;;;;9.33;5.50;;;;;;;;;;1774840;80;21494;-67
2022/08/07 10:33:38;;;;;;;5.20;4.70;;;;;;;;;;1787047;80;21061;-67
2022/08/07 10:36:18;;;;;;;8.20;5.03;;;;;;;;;;1786590;80;21078;-66
2022/08/07 10:38:49;;;;;;;12.98;6.45;;;;;;;;;;1777686;80;21058;-67
2022/08/07 10:41:35;;;;;;;6.37;5.30;;;;;;;;;;1787272;79;21065;-66
2022/08/07 10:44:03;;;;;;;8.10;5.65;;;;;;;;;;1764886;80;20991;-67
2022/08/07 10:46:32;;;;;;;7.33;5.95;;;;;;;;;;1783304;79;21174;-66
2022/08/07 10:49:03;;;;;;;6.37;5.55;;;;;;;;;;1781984;80;21060;-66
2022/08/07 10:51:37;;;;;;;6.55;4.85;;;;;;;;;;1790448;79;20978;-65
2022/08/07 10:54:21;;;;;;;7.65;5.55;;;;;;;;;;1780654;80;21030;-66
2022/08/07 10:56:57;;;;;;;6.35;5.25;;;;;;;;;;1798163;79;21544;-66
2022/08/07 10:59:43;;;;;;;6.75;5.87;;;;;;;;;;1783452;79;21094;-67
2022/08/07 11:02:17;;;;;;;7.22;5.37;;;;;;;;;;1766427;79;22188;-67
2022/08/07 11:04:50;;;;;;;8.90;6.03;;;;;;;;;;1780738;79;21057;-67
2022/08/07 11:07:33;;;;;;;6.80;5.45;;;;;;;;;;1773391;79;21585;-67
2022/08/07 11:10:00;;;;;;;6.85;6.03;;;;;;;;;;1789958;79;21018;-67
2022/08/07 11:12:41;;;;;;;7.10;5.72;;;;;;;;;;1770277;79;21879;-67
2022/08/07 11:15:09;;;;;;;7.15;6.40;;;;;;;;;;1752148;82;21086;-67
2022/08/07 11:17:36;;;;;;;9.98;7.15;;;;;;;;;;1764332;80;21085;-67
2022/08/07 11:20:17;;;;;;;8.68;6.28;;;;;;;;;;1780784;79;21548;-67
2022/08/07 11:23:00;;;;;;;7.85;5.40;;;;;;;;;;1768395;79;21128;-67
2022/08/07 11:25:35;;;;;;;7.33;5.60;;;;;;;;;;1771492;81;21571;-66
2022/08/07 11:28:22;;;;;;;10.08;6.10;;;;;;;;;;1776033;80;21565;-67
2022/08/07 11:30:55;;;;;;;6.70;5.67;;;;;;;;;;1782677;79;21021;-67
2022/08/07 11:33:32;;;;;;;7.95;5.40;;;;;;;;;;1786666;79;21048;-67
2022/08/07 11:36:06;;;;;;;7.90;5.60;;;;;;;;;;1776752;81;21053;-68
2022/08/07 11:38:35;;;;;;;7.97;6.42;;;;;;;;;;1780158;79;21057;-68
2022/08/07 11:41:09;;;;;;;6.10;5.30;;;;;;;;;;1794161;79;22291;-67
2022/08/07 11:43:37;;;;;;;8.25;5.80;;;;;;;;;;1753630;79;21039;-67
2022/08/07 11:46:21;;;;;;;9.25;6.60;;;;;;;;;;1746087;81;21068;-67
2022/08/07 11:48:49;;;;;;;9.00;7.12;;;;;;;;;;1714706;83;21087;-67
2022/08/07 11:51:24;;;;;;;12.58;6.00;;;;;;;;;;1704770;83;21071;-67
2022/08/07 11:53:55;;;;;;;13.62;6.50;;;;;;;;;;1729464;81;21075;-67
2022/08/07 11:56:28;;;;;;;11.43;7.60;;;;;;;;;;1727993;83;21540;-68
2022/08/07 11:59:13;;;;;;;10.00;6.97;;;;;;;;;;1745496;81;21056;-69
2022/08/07 12:01:48;;;;;;;10.58;8.38;;;;;;;;;;1739310;81;21060;-69
2022/08/07 12:04:32;;;;;;;10.08;8.53;;;;;;;;;;1728613;81;21087;-68
2022/08/07 12:07:00;;;;;;;9.33;8.28;;;;;;;;;;1735705;81;21209;-69
2022/08/07 12:09:28;;;;;;;9.98;7.95;;;;;;;;;;1748707;81;21123;-69
2022/08/07 12:11:59;;;;;;;8.88;6.33;;;;;;;;;;1758188;81;21556;-68
2022/08/07 12:14:26;;;;;;;8.78;6.97;;;;;;;;;;1757818;81;21134;-68
2022/08/07 12:16:53;;;;;;;9.45;7.17;;;;;;;;;;1755199;81;21067;-68
2022/08/07 12:19:37;;;;;;;9.23;8.05;;;;;;;;;;1728661;81;21103;-68
2022/08/07 12:22:22;;;;;;;7.85;6.65;;;;;;;;;;1727292;83;21441;-68
2022/08/07 12:27:42;;;;;;;8.28;7.17;;;;;;;;;;1733801;81;21059;-69
2022/08/07 12:30:09;;;;;;;7.45;6.15;;;;;;;;;;1737580;81;21092;-68
2022/08/07 12:32:42;;;;;;;9.25;6.62;;;;;;;;;;1758036;81;21630;-68
2022/08/07 12:35:09;;;;;;;10.63;7.70;;;;;;;;;;1757532;81;21020;-68
2022/08/07 12:37:36;;;;;;;9.38;8.35;;;;;;;;;;1729604;81;21052;-69
2022/08/07 12:40:03;;;;;;;9.68;7.70;;;;;;;;;;1743914;81;21047;-68
2022/08/07 12:42:29;;;;;;;7.92;6.55;;;;;;;;;;1743965;81;21000;-68
2022/08/07 12:44:57;;;;;;;10.00;7.50;;;;;;;;;;1728711;81;21075;-68
2022/08/07 12:47:41;;;;;;;10.08;8.18;;;;;;;;;;1751704;79;21104;-68
2022/08/07 12:50:26;;;;;;;12.05;8.38;;;;;;;;;;1775876;79;21041;-67
2022/08/07 12:53:02;;;;;;;11.12;8.05;;;;;;;;;;1778016;81;21107;-67
2022/08/07 12:55:32;;;;;;;9.78;8.03;;;;;;;;;;1772554;81;21560;-69
2022/08/07 12:57:58;;;;;;;11.40;8.45;;;;;;;;;;1754818;81;21076;-69
2022/08/07 13:00:27;;;;;;;11.45;8.70;;;;;;;;;;1765985;79;21068;-69
2022/08/07 13:03:00;;;;;;;8.78;6.97;;;;;;;;;;1762073;79;21020;-69
2022/08/07 13:05:45;;;;;;;9.28;7.28;;;;;;;;;;1751670;79;21061;-68
2022/08/07 13:08:31;;;;;;;8.65;7.72;;;;;;;;;;1771078;81;21013;-68
2022/08/07 13:10:59;;;;;;;9.40;8.33;;;;;;;;;;1776476;79;21057;-68
2022/08/07 13:13:30;;;;;;;10.93;7.87;;;;;;;;;;1764014;79;21068;-69
2022/08/07 13:16:00;;;;;;;9.58;8.60;;;;;;;;;;1741105;79;21543;-69
2022/08/07 13:18:31;;;;;;;11.03;8.68;;;;;;;;;;1775828;79;21032;-69
2022/08/07 13:21:08;;;;;;;9.25;8.10;;;;;;;;;;1776264;79;21009;-69
2022/08/07 13:23:36;;;;;;;10.65;8.85;;;;;;;;;;1767928;79;21049;-68
2022/08/07 13:26:03;;;;;;;10.43;8.38;;;;;;;;;;1769657;80;21033;-68
2022/08/07 13:28:45;;;;;;;12.25;7.90;;;;;;;;;;1767125;79;21060;-69
2022/08/07 13:31:13;;;;;;;10.63;7.58;;;;;;;;;;1774126;79;21088;-68
2022/08/07 13:33:56;;;;;;;11.20;8.75;;;;;;;;;;1769042;80;21034;-68
2022/08/07 13:36:27;;;;;;;10.80;8.38;;;;;;;;;;1749023;79;21396;-68
2022/08/07 13:39:01;;;;;;;12.73;8.65;;;;;;;;;;1778009;81;21037;-68
2022/08/07 13:41:35;;;;;;;10.20;8.28;;;;;;;;;;1777001;80;21497;-68
2022/08/07 13:44:02;;;;;;;9.53;8.58;;;;;;;;;;1771752;80;21072;-69
2022/08/07 13:46:29;;;;;;;9.93;7.95;;;;;;;;;;1740968;80;20992;-70
2022/08/07 13:48:56;;;;;;;11.57;8.50;;;;;;;;;;1743042;81;21056;-69
2022/08/07 13:51:23;;;;;;;9.55;8.15;;;;;;;;;;1747468;81;21040;-69
2022/08/07 13:53:51;;;;;;;9.83;8.53;;;;;;;;;;1720125;81;21048;-69
2022/08/07 13:56:19;;;;;;;10.95;9.20;;;;;;;;;;1742725;81;21041;-70
2022/08/07 13:59:00;;;;;;;9.35;7.75;;;;;;;;;;1757669;81;20981;-69
2022/08/07 14:01:28;;;;;;;9.08;7.37;;;;;;;;;;1757947;81;21091;-69
2022/08/07 14:03:54;;;;;;;10.50;7.95;;;;;;;;;;1749853;81;21664;-68
2022/08/07 14:06:21;;;;;;;12.10;8.83;;;;;;;;;;1752720;81;21142;-69
2022/08/07 14:08:50;;;;;;;11.90;8.10;;;;;;;;;;1754337;81;21021;-69
2022/08/07 14:11:18;;;;;;;9.55;7.35;;;;;;;;;;1757704;81;21076;-69
2022/08/07 14:13:52;;;;;;;10.15;8.73;;;;;;;;;;1743149;81;21072;-69
2022/08/07 14:16:16;;;;;;;9.40;7.47;;;;;;;;;;1727558;81;21208;-69
2022/08/07 14:18:47;;;;;;;8.88;7.20;;;;;;;;;;1757224;81;21653;-69
2022/08/07 14:21:21;;;;;;;8.73;7.25;;;;;;;;;;1756264;81;21168;-69
2022/08/07 14:23:49;;;;;;;10.18;8.18;;;;;;;;;;1755397;81;21068;-70
2022/08/07 14:26:17;;;;;;;9.53;7.08;;;;;;;;;;1748027;81;21029;-70
2022/08/07 14:28:44;;;;;;;13.50;7.33;;;;;;;;;;1728923;81;21076;-69
2022/08/07 14:31:10;;;;;;;9.85;7.37;;;;;;;;;;1736740;81;21052;-70
2022/08/07 14:33:37;;;;;;;11.05;7.55;;;;;;;;;;1717573;83;21483;-67
2022/08/07 14:36:03;;;;;;;10.82;8.28;;;;;;;;;;1703278;83;21071;-67
2022/08/07 14:38:29;;;;;;;8.00;7.20;;;;;;;;;;1757843;81;21054;-66
2022/08/07 14:40:56;;;;;;;8.68;6.17;;;;;;;;;;1721236;83;21546;-67
2022/08/07 14:43:22;;;;;;;7.70;6.00;;;;;;;;;;1748474;81;21104;-67
2022/08/07 14:45:49;;;;;;;7.37;6.17;;;;;;;;;;1740396;80;21028;-67
2022/08/07 14:48:17;;;;;;;7.03;5.87;;;;;;;;;;1759684;79;21009;-70
2022/08/07 14:50:44;;;;;;;7.25;5.78;;;;;;;;;;1778247;79;21074;-69
2022/08/07 14:53:10;;;;;;;7.22;6.45;;;;;;;;;;1774385;80;21050;-68
2022/08/07 14:55:37;;;;;;;6.87;6.03;;;;;;;;;;1774230;79;21481;-68
2022/08/07 14:58:04;;;;;;;7.03;5.30;;;;;;;;;;1774882;81;21084;-68
2022/08/07 15:00:31;;;;;;;7.10;5.53;;;;;;;;;;1757311;79;21057;-68